sensor_id;sensor_type;location;lat;lon;timestamp;pressure;altitude;pressure_sealevel;temperature;humidity
40171;BME280;37650;52.790;18.268;2022-12-18T10:31:21;102627.16;;;-7.30;100.00
40171;BME280;37650;52.790;18.268;2022-12-18T10:34:49;102628.79;;;-7.24;100.00
40171;BME280;37650;52.790;18.268;2022-12-18T10:41:38;102630.00;;;-6.94;100.00
40171;BME280;37650;52.790;18.268;2022-12-18T10:45:09;102632.68;;;-6.83;100.00
40171;BME280;37650;52.790;18.268;2022-12-18T10:48:32;102631.13;;;-6.63;100.00
40171;BME280;37650;52.790;18.268;2022-12-18T10:55:39;102626.73;;;-6.46;100.00
40171;BME280;37650;52.790;18.268;2022-12-18T10:59:06;102631.75;;;-6.47;100.00
40171;BME280;37650;52.790;18.268;2022-12-18T11:02:34;102630.13;;;-6.53;100.00
40171;BME280;37650;52.790;18.268;2022-12-18T11:06:05;102633.40;;;-6.48;100.00
40171;BME280;37650;52.790;18.268;2022-12-18T11:09:35;102633.46;;;-6.39;100.00
40171;BME280;37650;52.790;18.268;2022-12-18T11:13:15;102645.55;;;-6.27;100.00
40171;BME280;37650;52.790;18.268;2022-12-18T11:16:44;102647.34;;;-6.15;100.00
40171;BME280;37650;52.790;18.268;2022-12-18T11:20:27;102649.77;;;-6.07;100.00
40171;BME280;37650;52.790;18.268;2022-12-18T11:23:54;102650.83;;;-6.10;100.00
40171;BME280;37650;52.790;18.268;2022-12-18T11:27:17;102649.20;;;-6.08;100.00
40171;BME280;37650;52.790;18.268;2022-12-18T11:30:39;102650.54;;;-6.16;100.00
40171;BME280;37650;52.790;18.268;2022-12-18T11:34:25;102654.84;;;-6.08;100.00
40171;BME280;37650;52.790;18.268;2022-12-18T11:37:54;102655.48;;;-6.03;100.00
40171;BME280;37650;52.790;18.268;2022-12-18T11:41:29;102657.63;;;-6.02;100.00
40171;BME280;37650;52.790;18.268;2022-12-18T11:45:35;102664.44;;;-6.15;100.00
40171;BME280;37650;52.790;18.268;2022-12-18T11:49:18;102664.76;;;-6.21;100.00
40171;BME280;37650;52.790;18.268;2022-12-18T11:52:42;102669.33;;;-6.14;100.00
40171;BME280;37650;52.790;18.268;2022-12-18T12:00:09;102663.98;;;-6.37;100.00
40171;BME280;37650;52.790;18.268;2022-12-18T12:08:16;102669.02;;;-6.36;100.00
40171;BME280;37650;52.790;18.268;2022-12-18T12:19:03;102672.46;;;-6.17;100.00
40171;BME280;37650;52.790;18.268;2022-12-18T12:22:37;102671.35;;;-6.19;100.00
40171;BME280;37650;52.790;18.268;2022-12-18T12:26:09;102671.98;;;-6.15;100.00
40171;BME280;37650;52.790;18.268;2022-12-18T12:37:08;102664.06;;;-6.23;100.00
40171;BME280;37650;52.790;18.268;2022-12-18T12:40:03;102668.80;;;-6.32;100.00
40171;BME280;37650;52.790;18.268;2022-12-18T12:47:07;102684.64;;;-6.20;100.00
40171;BME280;37650;52.790;18.268;2022-12-18T12:50:34;102693.39;;;-6.24;100.00
40171;BME280;37650;52.790;18.268;2022-12-18T12:53:59;102694.82;;;-6.25;100.00
40171;BME280;37650;52.790;18.268;2022-12-18T12:57:33;102697.71;;;-6.28;100.00
40171;BME280;37650;52.790;18.268;2022-12-18T13:01:04;102710.57;;;-6.32;100.00
40171;BME280;37650;52.790;18.268;2022-12-18T13:04:36;102714.46;;;-6.33;100.00
40171;BME280;37650;52.790;18.268;2022-12-18T13:08:07;102716.10;;;-6.24;100.00
40171;BME280;37650;52.790;18.268;2022-12-18T13:19:22;102722.80;;;-6.14;100.00
40171;BME280;37650;52.790;18.268;2022-12-18T13:22:48;102724.49;;;-6.19;100.00
40171;BME280;37650;52.790;18.268;2022-12-18T13:29:44;102723.12;;;-6.26;100.00
40171;BME280;37650;52.790;18.268;2022-12-18T13:36:37;102719.13;;;-6.10;100.00
40171;BME280;37650;52.790;18.268;2022-12-18T13:39:59;102721.53;;;-6.05;100.00
40171;BME280;37650;52.790;18.268;2022-12-18T13:46:44;102712.83;;;-6.15;100.00
40171;BME280;37650;52.790;18.268;2022-12-18T13:50:18;102706.83;;;-6.12;100.00
40171;BME280;37650;52.790;18.268;2022-12-18T13:53:57;102708.05;;;-6.15;100.00
40171;BME280;37650;52.790;18.268;2022-12-18T13:57:28;102712.60;;;-6.23;100.00
40171;BME280;37650;52.790;18.268;2022-12-18T14:00:50;102711.31;;;-6.34;100.00
40171;BME280;37650;52.790;18.268;2022-12-18T14:04:29;102715.25;;;-6.37;100.00
40171;BME280;37650;52.790;18.268;2022-12-18T14:07:55;102721.77;;;-6.33;100.00
40171;BME280;37650;52.790;18.268;2022-12-18T14:11:22;102726.67;;;-6.29;100.00
40171;BME280;37650;52.790;18.268;2022-12-18T14:14:46;102730.94;;;-6.24;100.00
40171;BME280;37650;52.790;18.268;2022-12-18T14:18:19;102735.42;;;-6.24;100.00
40171;BME280;37650;52.790;18.268;2022-12-18T14:21:46;102736.36;;;-6.20;100.00
40171;BME280;37650;52.790;18.268;2022-12-18T14:33:44;102731.36;;;-6.16;100.00
40171;BME280;37650;52.790;18.268;2022-12-18T14:37:09;102732.63;;;-6.20;100.00
40171;BME280;37650;52.790;18.268;2022-12-18T14:40:31;102735.77;;;-6.24;100.00
40171;BME280;37650;52.790;18.268;2022-12-18T14:43:53;102735.45;;;-6.31;100.00
40171;BME280;37650;52.790;18.268;2022-12-18T14:47:15;102740.38;;;-6.34;100.00
40171;BME280;37650;52.790;18.268;2022-12-18T14:50:37;102741.13;;;-6.30;100.00
40171;BME280;37650;52.790;18.268;2022-12-18T14:54:04;102735.53;;;-6.35;100.00
40171;BME280;37650;52.790;18.268;2022-12-18T14:57:36;102728.22;;;-6.40;100.00
40171;BME280;37650;52.790;18.268;2022-12-18T15:00:59;102727.10;;;-6.38;100.00
40171;BME280;37650;52.790;18.268;2022-12-18T15:07:54;102728.97;;;-6.41;100.00
40171;BME280;37650;52.790;18.268;2022-12-18T15:11:33;102733.24;;;-6.41;100.00
40171;BME280;37650;52.790;18.268;2022-12-18T15:14:58;102744.51;;;-6.39;100.00
40171;BME280;37650;52.790;18.268;2022-12-18T15:18:35;102752.16;;;-6.36;100.00
40171;BME280;37650;52.790;18.268;2022-12-18T15:22:03;102751.52;;;-6.38;100.00
40171;BME280;37650;52.790;18.268;2022-12-18T15:25:35;102753.95;;;-6.45;100.00
40171;BME280;37650;52.790;18.268;2022-12-18T15:29:05;102759.21;;;-6.48;100.00
40171;BME280;37650;52.790;18.268;2022-12-18T15:32:42;102768.36;;;-6.52;100.00
40171;BME280;37650;52.790;18.268;2022-12-18T15:36:09;102768.29;;;-6.58;100.00
40171;BME280;37650;52.790;18.268;2022-12-18T15:39:32;102758.77;;;-6.62;100.00
40171;BME280;37650;52.790;18.268;2022-12-18T15:42:56;102759.44;;;-6.62;100.00
40171;BME280;37650;52.790;18.268;2022-12-18T15:46:40;102758.67;;;-6.53;100.00
40171;BME280;37650;52.790;18.268;2022-12-18T15:50:06;102758.95;;;-6.50;100.00
40171;BME280;37650;52.790;18.268;2022-12-18T15:53:30;102761.46;;;-6.55;100.00
40171;BME280;37650;52.790;18.268;2022-12-18T15:56:53;102768.45;;;-6.55;100.00
40171;BME280;37650;52.790;18.268;2022-12-18T16:00:36;102775.44;;;-6.58;100.00
40171;BME280;37650;52.790;18.268;2022-12-18T16:04:01;102773.73;;;-6.60;100.00
40171;BME280;37650;52.790;18.268;2022-12-18T16:07:23;102766.70;;;-6.63;100.00
40171;BME280;37650;52.790;18.268;2022-12-18T16:10:46;102775.02;;;-6.66;100.00
40171;BME280;37650;52.790;18.268;2022-12-18T16:14:21;102773.69;;;-6.70;100.00
40171;BME280;37650;52.790;18.268;2022-12-18T16:17:45;102754.09;;;-6.82;100.00
40171;BME280;37650;52.790;18.268;2022-12-18T16:21:08;102742.20;;;-6.83;100.00
40171;BME280;37650;52.790;18.268;2022-12-18T16:24:32;102740.80;;;-6.82;100.00
40171;BME280;37650;52.790;18.268;2022-12-18T16:28:00;102744.86;;;-6.87;100.00
40171;BME280;37650;52.790;18.268;2022-12-18T16:31:23;102744.20;;;-6.94;100.00
40171;BME280;37650;52.790;18.268;2022-12-18T16:34:45;102745.59;;;-6.96;100.00
40171;BME280;37650;52.790;18.268;2022-12-18T16:38:10;102742.92;;;-7.00;100.00
40171;BME280;37650;52.790;18.268;2022-12-18T16:41:34;102738.71;;;-7.13;100.00
40171;BME280;37650;52.790;18.268;2022-12-18T16:44:58;102733.55;;;-7.28;100.00
40171;BME280;37650;52.790;18.268;2022-12-18T16:48:24;102729.73;;;-7.31;100.00
40171;BME280;37650;52.790;18.268;2022-12-18T16:51:46;102732.26;;;-7.32;100.00
40171;BME280;37650;52.790;18.268;2022-12-18T16:55:10;102732.01;;;-7.33;100.00
40171;BME280;37650;52.790;18.268;2022-12-18T16:58:33;102724.55;;;-7.42;100.00
40171;BME280;37650;52.790;18.268;2022-12-18T17:01:57;102713.73;;;-7.43;100.00
40171;BME280;37650;52.790;18.268;2022-12-18T17:05:20;102715.92;;;-7.43;100.00
40171;BME280;37650;52.790;18.268;2022-12-18T17:08:42;102726.14;;;-7.41;100.00
40171;BME280;37650;52.790;18.268;2022-12-18T17:12:05;102727.74;;;-7.40;100.00
40171;BME280;37650;52.790;18.268;2022-12-18T17:15:28;102733.96;;;-7.43;100.00
40171;BME280;37650;52.790;18.268;2022-12-18T17:18:54;102737.56;;;-7.48;100.00
40171;BME280;37650;52.790;18.268;2022-12-18T17:22:17;102727.35;;;-7.45;100.00
40171;BME280;37650;52.790;18.268;2022-12-18T17:25:40;102735.37;;;-7.40;100.00
40171;BME280;37650;52.790;18.268;2022-12-18T17:29:03;102733.86;;;-7.38;100.00
40171;BME280;37650;52.790;18.268;2022-12-18T17:32:25;102727.63;;;-7.37;100.00
40171;BME280;37650;52.790;18.268;2022-12-18T17:35:48;102722.83;;;-7.37;100.00
40171;BME280;37650;52.790;18.268;2022-12-18T17:39:17;102721.60;;;-7.31;100.00
40171;BME280;37650;52.790;18.268;2022-12-18T17:42:41;102723.80;;;-7.38;100.00
40171;BME280;37650;52.790;18.268;2022-12-18T17:46:05;102723.88;;;-7.60;100.00
40171;BME280;37650;52.790;18.268;2022-12-18T17:49:31;102719.70;;;-7.73;100.00
40171;BME280;37650;52.790;18.268;2022-12-18T17:52:55;102710.70;;;-7.72;100.00
40171;BME280;37650;52.790;18.268;2022-12-18T17:56:21;102708.51;;;-7.72;100.00
40171;BME280;37650;52.790;18.268;2022-12-18T17:59:47;102709.90;;;-7.74;100.00
40171;BME280;37650;52.790;18.268;2022-12-18T18:03:10;102710.90;;;-7.70;100.00
40171;BME280;37650;52.790;18.268;2022-12-18T18:06:35;102712.64;;;-7.67;100.00
40171;BME280;37650;52.790;18.268;2022-12-18T18:09:58;102717.30;;;-7.66;100.00
40171;BME280;37650;52.790;18.268;2022-12-18T18:13:23;102722.46;;;-7.63;100.00
40171;BME280;37650;52.790;18.268;2022-12-18T18:17:08;102722.60;;;-7.68;100.00
40171;BME280;37650;52.790;18.268;2022-12-18T18:20:30;102728.23;;;-7.73;100.00
40171;BME280;37650;52.790;18.268;2022-12-18T18:23:54;102726.81;;;-7.78;100.00
40171;BME280;37650;52.790;18.268;2022-12-18T18:27:29;102731.84;;;-7.74;100.00
40171;BME280;37650;52.790;18.268;2022-12-18T18:30:53;102742.09;;;-7.76;100.00
40171;BME280;37650;52.790;18.268;2022-12-18T18:34:19;102746.48;;;-7.84;100.00
40171;BME280;37650;52.790;18.268;2022-12-18T18:37:43;102746.01;;;-7.83;100.00
40171;BME280;37650;52.790;18.268;2022-12-18T18:41:06;102755.79;;;-7.87;100.00
40171;BME280;37650;52.790;18.268;2022-12-18T18:44:31;102750.43;;;-7.86;100.00
40171;BME280;37650;52.790;18.268;2022-12-18T18:47:55;102752.63;;;-7.84;100.00
40171;BME280;37650;52.790;18.268;2022-12-18T18:51:22;102752.45;;;-7.82;100.00
40171;BME280;37650;52.790;18.268;2022-12-18T18:54:49;102760.02;;;-7.80;100.00
40171;BME280;37650;52.790;18.268;2022-12-18T18:58:19;102757.58;;;-7.88;100.00
40171;BME280;37650;52.790;18.268;2022-12-18T19:01:43;102755.67;;;-8.04;100.00
40171;BME280;37650;52.790;18.268;2022-12-18T19:05:07;102753.80;;;-8.06;100.00
40171;BME280;37650;52.790;18.268;2022-12-18T19:08:34;102748.11;;;-8.07;100.00
40171;BME280;37650;52.790;18.268;2022-12-18T19:11:57;102747.63;;;-8.04;100.00
40171;BME280;37650;52.790;18.268;2022-12-18T19:15:38;102751.23;;;-8.07;100.00
40171;BME280;37650;52.790;18.268;2022-12-18T19:19:02;102753.89;;;-8.05;100.00
40171;BME280;37650;52.790;18.268;2022-12-18T19:22:25;102753.80;;;-8.06;100.00
40171;BME280;37650;52.790;18.268;2022-12-18T19:25:52;102745.66;;;-8.11;100.00
40171;BME280;37650;52.790;18.268;2022-12-18T19:29:15;102737.67;;;-8.15;100.00
40171;BME280;37650;52.790;18.268;2022-12-18T19:32:37;102740.95;;;-8.19;100.00
40171;BME280;37650;52.790;18.268;2022-12-18T19:36:00;102737.77;;;-8.23;100.00
40171;BME280;37650;52.790;18.268;2022-12-18T19:39:22;102730.92;;;-8.21;100.00
40171;BME280;37650;52.790;18.268;2022-12-18T19:42:44;102717.94;;;-8.19;100.00
40171;BME280;37650;52.790;18.268;2022-12-18T19:46:11;102707.29;;;-8.16;100.00
40171;BME280;37650;52.790;18.268;2022-12-18T19:49:34;102709.48;;;-8.09;100.00
40171;BME280;37650;52.790;18.268;2022-12-18T19:52:59;102710.36;;;-8.06;100.00
40171;BME280;37650;52.790;18.268;2022-12-18T19:56:23;102716.09;;;-8.03;100.00
40171;BME280;37650;52.790;18.268;2022-12-18T19:59:46;102710.86;;;-8.02;100.00
40171;BME280;37650;52.790;18.268;2022-12-18T20:03:09;102707.87;;;-8.01;100.00
40171;BME280;37650;52.790;18.268;2022-12-18T20:06:46;102707.96;;;-7.93;100.00
40171;BME280;37650;52.790;18.268;2022-12-18T20:10:12;102702.38;;;-7.83;100.00
40171;BME280;37650;52.790;18.268;2022-12-18T20:13:34;102713.32;;;-7.83;100.00
40171;BME280;37650;52.790;18.268;2022-12-18T20:16:55;102715.96;;;-7.84;100.00
40171;BME280;37650;52.790;18.268;2022-12-18T20:20:18;102725.53;;;-7.86;100.00
40171;BME280;37650;52.790;18.268;2022-12-18T20:23:44;102733.90;;;-7.95;100.00
40171;BME280;37650;52.790;18.268;2022-12-18T20:27:06;102735.95;;;-8.01;100.00
40171;BME280;37650;52.790;18.268;2022-12-18T20:30:30;102730.81;;;-7.99;100.00
40171;BME280;37650;52.790;18.268;2022-12-18T20:33:55;102733.11;;;-7.96;100.00
40171;BME280;37650;52.790;18.268;2022-12-18T20:37:18;102730.45;;;-7.95;100.00
40171;BME280;37650;52.790;18.268;2022-12-18T20:40:41;102732.40;;;-7.92;100.00
40171;BME280;37650;52.790;18.268;2022-12-18T20:44:07;102732.92;;;-7.87;100.00
40171;BME280;37650;52.790;18.268;2022-12-18T20:47:32;102727.45;;;-7.87;100.00
40171;BME280;37650;52.790;18.268;2022-12-18T20:50:57;102727.48;;;-7.85;100.00
40171;BME280;37650;52.790;18.268;2022-12-18T20:54:23;102732.64;;;-7.89;100.00
40171;BME280;37650;52.790;18.268;2022-12-18T20:57:46;102738.33;;;-7.95;100.00
40171;BME280;37650;52.790;18.268;2022-12-18T21:01:15;102729.84;;;-7.97;100.00
40171;BME280;37650;52.790;18.268;2022-12-18T21:04:38;102735.95;;;-7.99;100.00
40171;BME280;37650;52.790;18.268;2022-12-18T21:08:00;102738.41;;;-7.98;100.00
40171;BME280;37650;52.790;18.268;2022-12-18T21:11:28;102731.27;;;-7.98;100.00
40171;BME280;37650;52.790;18.268;2022-12-18T21:15:09;102731.79;;;-7.93;100.00
40171;BME280;37650;52.790;18.268;2022-12-18T21:18:31;102729.77;;;-7.88;100.00
40171;BME280;37650;52.790;18.268;2022-12-18T21:21:54;102729.63;;;-7.88;100.00
40171;BME280;37650;52.790;18.268;2022-12-18T21:25:15;102732.90;;;-7.85;100.00
40171;BME280;37650;52.790;18.268;2022-12-18T21:28:36;102732.38;;;-7.86;100.00
40171;BME280;37650;52.790;18.268;2022-12-18T21:31:58;102724.46;;;-7.89;100.00
40171;BME280;37650;52.790;18.268;2022-12-18T21:35:18;102726.39;;;-7.86;100.00
40171;BME280;37650;52.790;18.268;2022-12-18T21:38:39;102730.67;;;-7.83;100.00
40171;BME280;37650;52.790;18.268;2022-12-18T21:42:01;102735.91;;;-7.77;100.00
40171;BME280;37650;52.790;18.268;2022-12-18T21:45:41;102736.80;;;-7.81;100.00
40171;BME280;37650;52.790;18.268;2022-12-18T21:49:04;102733.42;;;-7.87;100.00
40171;BME280;37650;52.790;18.268;2022-12-18T21:52:25;102732.05;;;-7.85;100.00
40171;BME280;37650;52.790;18.268;2022-12-18T21:55:56;102730.27;;;-7.82;100.00
40171;BME280;37650;52.790;18.268;2022-12-18T21:59:22;102724.59;;;-7.87;100.00
40171;BME280;37650;52.790;18.268;2022-12-18T22:02:43;102724.91;;;-7.85;100.00
40171;BME280;37650;52.790;18.268;2022-12-18T22:06:05;102721.19;;;-7.82;100.00
40171;BME280;37650;52.790;18.268;2022-12-18T22:09:27;102725.71;;;-7.83;100.00
40171;BME280;37650;52.790;18.268;2022-12-18T22:12:48;102724.41;;;-7.83;100.00
40171;BME280;37650;52.790;18.268;2022-12-18T22:16:09;102716.34;;;-7.81;100.00
40171;BME280;37650;52.790;18.268;2022-12-18T22:19:30;102708.65;;;-7.82;100.00
40171;BME280;37650;52.790;18.268;2022-12-18T22:22:52;102706.21;;;-7.80;100.00
40171;BME280;37650;52.790;18.268;2022-12-18T22:26:14;102696.46;;;-7.85;100.00
40171;BME280;37650;52.790;18.268;2022-12-18T22:29:35;102691.70;;;-7.83;100.00
40171;BME280;37650;52.790;18.268;2022-12-18T22:33:14;102681.77;;;-7.81;100.00
40171;BME280;37650;52.790;18.268;2022-12-18T22:36:38;102682.91;;;-7.79;100.00
40171;BME280;37650;52.790;18.268;2022-12-18T22:40:00;102688.59;;;-7.74;100.00
40171;BME280;37650;52.790;18.268;2022-12-18T22:43:21;102690.15;;;-7.74;100.00
40171;BME280;37650;52.790;18.268;2022-12-18T22:46:45;102690.56;;;-7.82;100.00
40171;BME280;37650;52.790;18.268;2022-12-18T22:50:07;102682.71;;;-7.82;100.00
40171;BME280;37650;52.790;18.268;2022-12-18T22:53:28;102670.23;;;-7.80;100.00
40171;BME280;37650;52.790;18.268;2022-12-18T22:56:50;102660.91;;;-7.84;100.00
40171;BME280;37650;52.790;18.268;2022-12-18T23:00:12;102652.79;;;-7.81;100.00
40171;BME280;37650;52.790;18.268;2022-12-18T23:03:34;102648.13;;;-7.77;100.00
40171;BME280;37650;52.790;18.268;2022-12-18T23:06:55;102639.04;;;-7.78;100.00
40171;BME280;37650;52.790;18.268;2022-12-18T23:10:16;102638.48;;;-7.79;100.00
40171;BME280;37650;52.790;18.268;2022-12-18T23:13:38;102635.08;;;-7.81;100.00
40171;BME280;37650;52.790;18.268;2022-12-18T23:16:59;102626.71;;;-7.77;100.00
40171;BME280;37650;52.790;18.268;2022-12-18T23:20:20;102624.86;;;-7.74;100.00
40171;BME280;37650;52.790;18.268;2022-12-18T23:23:42;102624.78;;;-7.70;100.00
40171;BME280;37650;52.790;18.268;2022-12-18T23:27:03;102627.16;;;-7.68;100.00
40171;BME280;37650;52.790;18.268;2022-12-18T23:30:24;102630.85;;;-7.64;100.00
40171;BME280;37650;52.790;18.268;2022-12-18T23:33:46;102627.61;;;-7.62;100.00
40171;BME280;37650;52.790;18.268;2022-12-18T23:37:08;102632.05;;;-7.57;100.00
40171;BME280;37650;52.790;18.268;2022-12-18T23:40:30;102633.54;;;-7.55;100.00
40171;BME280;37650;52.790;18.268;2022-12-18T23:43:53;102629.46;;;-7.57;100.00
40171;BME280;37650;52.790;18.268;2022-12-18T23:47:14;102626.20;;;-7.58;100.00
40171;BME280;37650;52.790;18.268;2022-12-18T23:50:35;102619.09;;;-7.55;100.00
40171;BME280;37650;52.790;18.268;2022-12-18T23:53:59;102615.40;;;-7.54;100.00
40171;BME280;37650;52.790;18.268;2022-12-18T23:57:20;102605.59;;;-7.57;100.00
